createdAt,value
2019-02-24T00:01:52.040Z,-3.90
2019-02-24T00:06:47.887Z,-4.00
2019-02-24T00:11:43.651Z,-4.10
2019-02-24T00:16:39.320Z,-4.10
2019-02-24T00:21:35.997Z,-4.20
2019-02-24T00:26:32.687Z,-4.20
2019-02-24T00:31:40.144Z,-4.30
2019-02-24T00:36:35.761Z,-4.20
2019-02-24T00:41:31.502Z,-4.30
2019-02-24T00:46:27.592Z,-4.40
2019-02-24T00:51:23.248Z,-4.40
2019-02-24T00:56:19.007Z,-4.40
2019-02-24T01:01:14.620Z,-4.50
2019-02-24T01:06:10.426Z,-4.60
2019-02-24T01:11:06.023Z,-4.60
2019-02-24T01:16:01.717Z,-4.60
2019-02-24T01:20:57.725Z,-4.70
2019-02-24T01:25:54.429Z,-4.70
2019-02-24T01:30:50.036Z,-4.70
2019-02-24T01:35:45.707Z,-4.70
2019-02-24T01:40:41.384Z,-4.80
2019-02-24T01:45:38.105Z,-4.90
2019-02-24T01:50:33.763Z,-5.00
2019-02-24T01:55:29.446Z,-5.20
2019-02-24T02:00:25.174Z,-5.10
2019-02-24T02:05:20.838Z,-5.10
2019-02-24T02:10:16.552Z,-5.20
2019-02-24T02:15:12.395Z,-5.10
2019-02-24T02:20:08.522Z,-5.20
2019-02-24T02:25:04.440Z,-5.20
2019-02-24T02:30:00.404Z,-5.20
2019-02-24T02:34:56.877Z,-5.20
2019-02-24T02:39:52.734Z,-5.30
2019-02-24T02:44:48.418Z,-5.30
2019-02-24T02:49:44.107Z,-5.30
2019-02-24T02:54:39.828Z,-5.30
2019-02-24T02:59:35.557Z,-5.30
2019-02-24T03:04:31.219Z,-5.40
2019-02-24T03:09:27.199Z,-5.40
2019-02-24T03:14:22.983Z,-5.40
2019-02-24T03:19:18.680Z,-5.50
2019-02-24T03:24:14.408Z,-5.60
2019-02-24T03:29:10.119Z,-5.60
2019-02-24T03:34:05.712Z,-5.70
2019-02-24T03:39:01.473Z,-5.70
2019-02-24T03:43:58.696Z,-5.70
2019-02-24T03:48:54.381Z,-5.80
2019-02-24T03:53:50.136Z,-5.70
2019-02-24T03:58:45.811Z,-5.80
2019-02-24T04:03:41.518Z,-5.80
2019-02-24T04:08:37.227Z,-5.90
2019-02-24T04:13:32.938Z,-6.00
2019-02-24T04:18:28.729Z,-6.00
2019-02-24T04:23:24.438Z,-6.00
2019-02-24T04:28:20.516Z,-6.00
2019-02-24T04:33:16.217Z,-6.00
2019-02-24T04:38:12.066Z,-5.90
2019-02-24T04:43:07.832Z,-6.00
2019-02-24T04:48:03.612Z,-6.10
2019-02-24T04:52:59.313Z,-6.10
2019-02-24T04:57:55.152Z,-6.10
2019-02-24T05:02:50.836Z,-6.10
2019-02-24T05:07:46.584Z,-6.10
2019-02-24T05:12:42.341Z,-6.10
2019-02-24T05:17:38.756Z,-6.10
2019-02-24T05:22:34.578Z,-6.10
2019-02-24T05:27:30.488Z,-6.10
2019-02-24T05:32:26.154Z,-6.10
2019-02-24T05:37:23.607Z,-6.20
2019-02-24T05:42:19.577Z,-6.20
2019-02-24T05:47:21.061Z,-6.30
2019-02-24T05:52:16.758Z,-6.40
2019-02-24T05:57:12.365Z,-6.30
2019-02-24T06:02:08.084Z,-6.30
2019-02-24T06:07:03.781Z,-6.30
2019-02-24T06:11:59.432Z,-6.30
2019-02-24T06:16:55.033Z,-6.30
2019-02-24T06:21:50.669Z,-6.40
2019-02-24T06:26:47.623Z,-6.30
2019-02-24T06:31:43.331Z,-6.20
2019-02-24T06:36:38.958Z,-6.00
2019-02-24T06:41:34.731Z,-5.90
2019-02-24T06:46:30.584Z,-5.70
2019-02-24T06:51:26.250Z,-5.40
2019-02-24T06:56:21.992Z,-5.30
2019-02-24T07:01:17.592Z,-5.10
2019-02-24T07:06:14.548Z,-4.90
2019-02-24T07:11:10.388Z,-4.80
2019-02-24T07:16:06.097Z,-4.60
2019-02-24T07:21:01.828Z,-4.40
2019-02-24T07:25:57.497Z,-4.10
2019-02-24T07:30:53.488Z,-4.10
2019-02-24T07:35:49.211Z,-4.00
2019-02-24T07:40:44.982Z,-3.80
2019-02-24T07:45:40.658Z,-3.50
2019-02-24T07:50:37.363Z,-3.50
2019-02-24T07:55:33.153Z,-3.30
2019-02-24T08:00:32.137Z,-3.10
2019-02-24T08:05:26.186Z,-2.80
2019-02-24T08:10:22.853Z,-2.50
2019-02-24T08:15:18.525Z,-2.30
2019-02-24T08:20:14.216Z,-2.20
2019-02-24T08:25:09.918Z,-2.10
2019-02-24T08:30:07.751Z,-1.90
2019-02-24T08:35:03.701Z,-1.60
2019-02-24T08:39:59.543Z,-1.40
2019-02-24T08:44:55.224Z,-1.00
2019-02-24T08:49:50.928Z,-0.70
2019-02-24T08:54:47.804Z,-0.50
2019-02-24T08:59:43.610Z,-0.30
2019-02-24T09:04:39.292Z,-0.30
2019-02-24T09:09:35.002Z,-0.10
2019-02-24T09:14:30.664Z,0.00
2019-02-24T09:19:26.339Z,0.00
2019-02-24T09:24:22.189Z,0.20
2019-02-24T09:29:17.924Z,0.50
2019-02-24T09:34:13.608Z,0.70
2019-02-24T09:39:09.252Z,1.00
2019-02-24T09:44:08.164Z,1.30
2019-02-24T09:49:06.248Z,1.60
2019-02-24T09:54:08.175Z,1.70
2019-02-24T09:59:02.605Z,1.80
2019-02-24T10:03:58.261Z,2.00
2019-02-24T10:08:53.919Z,2.20
2019-02-24T10:13:51.291Z,2.50
2019-02-24T10:18:47.235Z,2.60
2019-02-24T10:23:44.884Z,2.80
2019-02-24T10:28:40.565Z,3.10
2019-02-24T10:33:36.152Z,3.30
2019-02-24T10:38:32.292Z,3.30
2019-02-24T10:43:27.958Z,3.30
2019-02-24T10:48:23.742Z,3.30
2019-02-24T10:53:19.433Z,3.30
2019-02-24T10:58:16.203Z,3.30
2019-02-24T11:03:11.877Z,3.30
2019-02-24T11:08:07.816Z,3.30
2019-02-24T11:13:03.574Z,3.40
2019-02-24T11:17:59.308Z,3.40
2019-02-24T11:22:54.986Z,3.40
2019-02-24T11:27:50.723Z,3.40
2019-02-24T11:32:46.400Z,3.50
2019-02-24T11:37:42.050Z,3.40
2019-02-24T11:42:38.028Z,3.60
2019-02-24T11:47:33.825Z,3.70
2019-02-24T11:52:29.837Z,3.70
2019-02-24T11:57:25.548Z,3.70
2019-02-24T12:02:21.288Z,3.80
2019-02-24T12:07:17.089Z,4.00
2019-02-24T12:12:12.715Z,4.30
2019-02-24T12:17:08.500Z,4.50
2019-02-24T12:22:05.175Z,4.60
2019-02-24T12:27:01.921Z,4.70
2019-02-24T12:31:57.618Z,4.90
2019-02-24T12:36:53.449Z,5.30
2019-02-24T12:41:49.333Z,5.60
2019-02-24T12:46:45.962Z,5.70
2019-02-24T12:51:41.562Z,5.70
2019-02-24T12:56:37.321Z,5.70
2019-02-24T13:01:33.004Z,5.80
2019-02-24T13:06:30.677Z,5.90
2019-02-24T13:11:26.509Z,5.90
2019-02-24T13:16:22.263Z,5.90
2019-02-24T13:21:18.040Z,6.10
2019-02-24T13:26:13.711Z,6.10
2019-02-24T13:31:09.625Z,6.10
2019-02-24T13:36:05.490Z,6.20
2019-02-24T13:41:01.716Z,6.40
2019-02-24T13:45:57.545Z,6.60
2019-02-24T13:50:53.277Z,7.00
2019-02-24T13:55:48.976Z,7.30
2019-02-24T14:00:47.548Z,7.30
2019-02-24T14:05:43.214Z,7.10
2019-02-24T14:10:38.985Z,7.20
2019-02-24T14:15:34.860Z,6.90
2019-02-24T14:20:30.908Z,6.50
2019-02-24T14:25:26.617Z,6.20
2019-02-24T14:30:22.517Z,6.00
2019-02-24T14:35:18.184Z,6.00
2019-02-24T14:40:17.061Z,5.90
2019-02-24T14:45:14.717Z,5.70
2019-02-24T14:50:10.556Z,5.60
2019-02-24T14:55:06.339Z,5.50
2019-02-24T15:00:05.714Z,5.50
2019-02-24T15:05:01.422Z,5.50
2019-02-24T15:09:58.135Z,5.50
2019-02-24T15:14:53.892Z,5.40
2019-02-24T15:19:54.608Z,5.40
2019-02-24T15:24:50.265Z,5.20
2019-02-24T15:29:45.944Z,5.20
2019-02-24T15:34:42.084Z,5.10
2019-02-24T15:39:37.748Z,5.00
2019-02-24T15:44:34.909Z,4.90
2019-02-24T15:49:30.599Z,4.90
2019-02-24T15:54:26.301Z,4.80
2019-02-24T15:59:23.054Z,4.70
2019-02-24T16:04:18.691Z,4.60
2019-02-24T16:09:14.371Z,4.60
2019-02-24T16:14:10.327Z,4.50
2019-02-24T16:19:06.153Z,4.40
2019-02-24T16:24:01.819Z,4.20
2019-02-24T16:29:00.132Z,4.10
2019-02-24T16:33:55.773Z,4.10
2019-02-24T16:38:51.509Z,4.00
2019-02-24T16:43:47.121Z,4.00
2019-02-24T16:48:42.945Z,3.90
2019-02-24T16:53:39.029Z,3.80
2019-02-24T16:58:34.817Z,3.70
2019-02-24T17:03:31.841Z,3.60
2019-02-24T17:08:27.633Z,3.60
2019-02-24T17:13:23.322Z,3.50
2019-02-24T17:18:19.750Z,3.50
2019-02-24T17:23:16.348Z,3.40
2019-02-24T17:28:12.250Z,3.30
2019-02-24T17:33:07.956Z,3.40
2019-02-24T17:38:03.918Z,3.40
2019-02-24T17:42:59.561Z,3.40
2019-02-24T17:47:56.237Z,3.40
2019-02-24T17:52:53.052Z,3.30
2019-02-24T17:57:52.481Z,3.40
2019-02-24T18:02:48.209Z,3.30
2019-02-24T18:07:43.967Z,3.30
2019-02-24T18:12:39.665Z,3.30
2019-02-24T18:17:35.462Z,3.40
2019-02-24T18:22:31.175Z,3.40
2019-02-24T18:27:27.090Z,3.30
2019-02-24T18:32:22.794Z,3.30
2019-02-24T18:37:18.561Z,3.20
2019-02-24T18:42:14.297Z,3.20
2019-02-24T18:47:10.147Z,3.10
2019-02-24T18:52:05.970Z,3.00
2019-02-24T18:57:01.869Z,3.00
2019-02-24T19:01:57.713Z,3.00
2019-02-24T19:06:53.648Z,2.90
2019-02-24T19:11:49.597Z,2.80
2019-02-24T19:16:45.458Z,2.70
2019-02-24T19:21:41.483Z,2.70
2019-02-24T19:26:37.171Z,2.70
2019-02-24T19:31:32.906Z,2.80
2019-02-24T19:36:28.696Z,2.70
2019-02-24T19:41:24.366Z,2.70
2019-02-24T19:46:20.104Z,2.70
2019-02-24T19:51:15.803Z,2.60
2019-02-24T19:56:13.846Z,2.70
2019-02-24T20:01:09.577Z,2.60
2019-02-24T20:06:05.359Z,2.70
2019-02-24T20:11:02.882Z,2.60
2019-02-24T20:15:58.689Z,2.50
2019-02-24T20:20:54.341Z,2.50
2019-02-24T20:25:50.066Z,2.50
2019-02-24T20:30:45.724Z,2.60
2019-02-24T20:35:41.520Z,2.70
2019-02-24T20:40:37.235Z,2.80
2019-02-24T20:45:32.888Z,2.80
2019-02-24T20:50:28.784Z,2.80
2019-02-24T20:55:24.545Z,2.90
2019-02-24T21:00:25.748Z,3.00
2019-02-24T21:05:21.433Z,3.00
2019-02-24T21:10:19.266Z,3.00
2019-02-24T21:15:15.316Z,3.00
2019-02-24T21:20:14.188Z,3.00
2019-02-24T21:25:10.042Z,3.00
2019-02-24T21:30:06.885Z,3.00
2019-02-24T21:35:02.629Z,3.00
2019-02-24T21:39:59.405Z,3.00
2019-02-24T21:44:56.365Z,2.90
2019-02-24T21:49:52.072Z,2.90
2019-02-24T21:54:47.751Z,2.90
2019-02-24T21:59:43.661Z,2.90
2019-02-24T22:04:39.401Z,2.80
2019-02-24T22:09:35.111Z,2.80
2019-02-24T22:14:31.877Z,2.70
2019-02-24T22:19:27.567Z,2.70
2019-02-24T22:24:23.424Z,2.60
2019-02-24T22:29:19.054Z,2.60
2019-02-24T22:34:14.766Z,2.60
2019-02-24T22:39:10.420Z,2.60
2019-02-24T22:44:07.650Z,2.60
2019-02-24T22:49:04.384Z,2.50
2019-02-24T22:54:00.149Z,2.50
2019-02-24T22:58:57.296Z,2.50
2019-02-24T23:03:55.066Z,2.60
2019-02-24T23:08:51.876Z,2.60
2019-02-24T23:13:47.656Z,2.70
2019-02-24T23:18:43.920Z,2.70
2019-02-24T23:23:39.535Z,2.80
2019-02-24T23:28:38.322Z,2.80
2019-02-24T23:33:34.342Z,2.80
2019-02-24T23:38:30.350Z,2.80
2019-02-24T23:43:26.077Z,2.70
2019-02-24T23:48:22.156Z,2.70
2019-02-24T23:53:17.980Z,2.60
2019-02-24T23:58:13.955Z,2.70
